sensor_id;sensor_type;location;lat;lon;timestamp;pressure;altitude;pressure_sealevel;temperature;humidity
6532;BME280;3299;42.004;24.868;2022-12-18T00:02:25;98758.66;;;10.79;100.00
6532;BME280;3299;42.004;24.868;2022-12-18T00:04:52;98821.34;;;11.11;100.00
6532;BME280;3299;42.004;24.868;2022-12-18T00:07:19;98783.75;;;10.79;100.00
6532;BME280;3299;42.004;24.868;2022-12-18T00:09:45;98830.28;;;10.93;100.00
6532;BME280;3299;42.004;24.868;2022-12-18T00:12:11;98839.31;;;11.00;100.00
6532;BME280;3299;42.004;24.868;2022-12-18T00:14:39;98782.56;;;10.70;100.00
6532;BME280;3299;42.004;24.868;2022-12-18T00:17:06;98819.94;;;10.93;100.00
6532;BME280;3299;42.004;24.868;2022-12-18T00:19:31;98839.41;;;10.98;100.00
6532;BME280;3299;42.004;24.868;2022-12-18T00:21:57;98779.13;;;10.70;100.00
6532;BME280;3299;42.004;24.868;2022-12-18T00:24:23;98825.81;;;10.95;100.00
6532;BME280;3299;42.004;24.868;2022-12-18T00:26:48;98795.22;;;10.75;100.00
6532;BME280;3299;42.004;24.868;2022-12-18T00:29:14;98803.31;;;10.83;100.00
6532;BME280;3299;42.004;24.868;2022-12-18T00:31:40;98857.25;;;11.03;100.00
6532;BME280;3299;42.004;24.868;2022-12-18T00:34:08;98868.16;;;11.08;100.00
6532;BME280;3299;42.004;24.868;2022-12-18T00:36:34;98852.75;;;10.92;100.00
6532;BME280;3299;42.004;24.868;2022-12-18T00:39:04;98860.56;;;11.05;100.00
6532;BME280;3299;42.004;24.868;2022-12-18T00:41:30;98878.69;;;11.05;100.00
6532;BME280;3299;42.004;24.868;2022-12-18T00:44:18;98788.06;;;10.52;100.00
6532;BME280;3299;42.004;24.868;2022-12-18T00:46:44;98883.88;;;11.05;100.00
6532;BME280;3299;42.004;24.868;2022-12-18T00:49:11;98879.19;;;10.97;100.00
6532;BME280;3299;42.004;24.868;2022-12-18T00:51:36;98835.34;;;10.68;100.00
6532;BME280;3299;42.004;24.868;2022-12-18T00:54:03;98869.97;;;10.93;100.00
6532;BME280;3299;42.004;24.868;2022-12-18T00:56:28;98808.16;;;10.61;100.00
6532;BME280;3299;42.004;24.868;2022-12-18T00:58:54;98828.94;;;10.73;100.00
6532;BME280;3299;42.004;24.868;2022-12-18T01:01:19;98869.66;;;10.98;100.00
6532;BME280;3299;42.004;24.868;2022-12-18T01:03:45;98818.88;;;10.69;100.00
6532;BME280;3299;42.004;24.868;2022-12-18T01:06:13;98872.56;;;10.93;100.00
6532;BME280;3299;42.004;24.868;2022-12-18T01:08:39;98837.25;;;10.78;100.00
6532;BME280;3299;42.004;24.868;2022-12-18T01:11:15;98876.28;;;11.02;100.00
6532;BME280;3299;42.004;24.868;2022-12-18T01:13:41;98860.25;;;10.83;100.00
6532;BME280;3299;42.004;24.868;2022-12-18T01:16:07;98817.31;;;10.52;100.00
6532;BME280;3299;42.004;24.868;2022-12-18T01:18:34;98842.63;;;10.61;100.00
6532;BME280;3299;42.004;24.868;2022-12-18T01:20:59;98863.50;;;10.72;100.00
6532;BME280;3299;42.004;24.868;2022-12-18T01:23:25;98858.91;;;10.63;100.00
6532;BME280;3299;42.004;24.868;2022-12-18T01:25:50;98831.31;;;10.50;100.00
6532;BME280;3299;42.004;24.868;2022-12-18T01:28:15;98877.31;;;10.73;100.00
6532;BME280;3299;42.004;24.868;2022-12-18T01:30:41;98823.38;;;10.39;100.00
6532;BME280;3299;42.004;24.868;2022-12-18T01:33:06;98822.44;;;10.40;100.00
6532;BME280;3299;42.004;24.868;2022-12-18T01:35:32;98821.69;;;10.38;100.00
6532;BME280;3299;42.004;24.868;2022-12-18T01:37:57;98885.41;;;10.67;100.00
6532;BME280;3299;42.004;24.868;2022-12-18T01:40:23;98890.97;;;10.61;100.00
6532;BME280;3299;42.004;24.868;2022-12-18T01:42:54;98839.44;;;10.30;100.00
6532;BME280;3299;42.004;24.868;2022-12-18T01:47:51;98839.91;;;10.36;100.00
6532;BME280;3299;42.004;24.868;2022-12-18T01:53:32;98890.78;;;10.64;100.00
6532;BME280;3299;42.004;24.868;2022-12-18T01:55:47;98899.38;;;10.50;100.00
6532;BME280;3299;42.004;24.868;2022-12-18T01:58:14;98846.63;;;10.25;100.00
6532;BME280;3299;42.004;24.868;2022-12-18T02:00:39;98859.19;;;10.31;100.00
6532;BME280;3299;42.004;24.868;2022-12-18T02:03:05;98841.09;;;10.17;100.00
6532;BME280;3299;42.004;24.868;2022-12-18T02:05:49;98890.25;;;10.45;100.00
6532;BME280;3299;42.004;24.868;2022-12-18T02:08:30;98901.25;;;10.48;100.00
6532;BME280;3299;42.004;24.868;2022-12-18T02:14:04;98862.06;;;10.13;100.00
6532;BME280;3299;42.004;24.868;2022-12-18T02:19:20;98904.28;;;10.41;100.00
6532;BME280;3299;42.004;24.868;2022-12-18T02:22:27;98895.31;;;10.32;100.00
6532;BME280;3299;42.004;24.868;2022-12-18T02:25:22;98863.91;;;10.10;100.00
6532;BME280;3299;42.004;24.868;2022-12-18T02:27:52;98915.00;;;10.35;100.00
6532;BME280;3299;42.004;24.868;2022-12-18T02:30:19;98882.75;;;10.13;100.00
6532;BME280;3299;42.004;24.868;2022-12-18T02:32:49;98913.16;;;10.23;100.00
6532;BME280;3299;42.004;24.868;2022-12-18T02:35:27;98859.50;;;9.97;100.00
6532;BME280;3299;42.004;24.868;2022-12-18T02:37:55;98865.66;;;10.10;100.00
6532;BME280;3299;42.004;24.868;2022-12-18T02:40:22;98853.25;;;10.01;100.00
6532;BME280;3299;42.004;24.868;2022-12-18T02:42:48;98907.25;;;10.35;100.00
6532;BME280;3299;42.004;24.868;2022-12-18T02:45:14;98905.31;;;10.38;100.00
6532;BME280;3299;42.004;24.868;2022-12-18T02:47:42;98883.03;;;10.22;100.00
6532;BME280;3299;42.004;24.868;2022-12-18T02:50:24;98865.38;;;10.14;100.00
6532;BME280;3299;42.004;24.868;2022-12-18T02:55:52;98917.22;;;10.55;100.00
6532;BME280;3299;42.004;24.868;2022-12-18T03:01:03;98899.03;;;10.42;100.00
6532;BME280;3299;42.004;24.868;2022-12-18T03:03:56;98904.94;;;10.44;100.00
6532;BME280;3299;42.004;24.868;2022-12-18T03:06:35;98856.69;;;10.15;100.00
6532;BME280;3299;42.004;24.868;2022-12-18T03:09:07;98858.16;;;10.05;100.00
6532;BME280;3299;42.004;24.868;2022-12-18T03:11:35;98891.72;;;10.21;100.00
6532;BME280;3299;42.004;24.868;2022-12-18T03:14:21;98852.59;;;9.97;100.00
6532;BME280;3299;42.004;24.868;2022-12-18T03:16:54;98867.94;;;10.00;100.00
6532;BME280;3299;42.004;24.868;2022-12-18T03:19:25;98822.16;;;9.59;100.00
6532;BME280;3299;42.004;24.868;2022-12-18T03:21:56;98860.00;;;9.74;100.00
6532;BME280;3299;42.004;24.868;2022-12-18T03:24:24;98913.44;;;10.03;100.00
6532;BME280;3299;42.004;24.868;2022-12-18T03:26:54;98924.38;;;10.08;100.00
6532;BME280;3299;42.004;24.868;2022-12-18T03:29:27;98886.84;;;9.87;100.00
6532;BME280;3299;42.004;24.868;2022-12-18T03:31:58;98881.72;;;9.72;100.00
6532;BME280;3299;42.004;24.868;2022-12-18T03:34:29;98876.72;;;9.68;100.00
6532;BME280;3299;42.004;24.868;2022-12-18T03:36:56;98872.41;;;9.69;100.00
6532;BME280;3299;42.004;24.868;2022-12-18T03:39:23;98944.97;;;10.09;100.00
6532;BME280;3299;42.004;24.868;2022-12-18T03:41:55;98948.28;;;10.11;100.00
6532;BME280;3299;42.004;24.868;2022-12-18T03:44:31;98944.31;;;10.06;100.00
6532;BME280;3299;42.004;24.868;2022-12-18T03:50:17;98961.13;;;10.13;100.00
6532;BME280;3299;42.004;24.868;2022-12-18T03:53:07;98969.75;;;10.13;100.00
6532;BME280;3299;42.004;24.868;2022-12-18T03:55:35;98954.50;;;9.93;100.00
6532;BME280;3299;42.004;24.868;2022-12-18T03:58:02;98931.84;;;9.83;100.00
6532;BME280;3299;42.004;24.868;2022-12-18T04:00:29;98970.31;;;10.03;100.00
6532;BME280;3299;42.004;24.868;2022-12-18T04:02:56;98970.84;;;10.09;100.00
6532;BME280;3299;42.004;24.868;2022-12-18T04:05:25;98963.09;;;9.94;100.00
6532;BME280;3299;42.004;24.868;2022-12-18T04:07:53;98981.00;;;10.13;100.00
6532;BME280;3299;42.004;24.868;2022-12-18T04:10:19;98932.69;;;9.83;100.00
6532;BME280;3299;42.004;24.868;2022-12-18T04:12:45;98940.00;;;9.91;100.00
6532;BME280;3299;42.004;24.868;2022-12-18T04:15:11;98931.34;;;9.92;100.00
6532;BME280;3299;42.004;24.868;2022-12-18T04:17:38;98939.75;;;9.95;100.00
6532;BME280;3299;42.004;24.868;2022-12-18T04:20:04;98979.44;;;10.24;100.00
6532;BME280;3299;42.004;24.868;2022-12-18T04:22:29;98923.13;;;9.99;100.00
6532;BME280;3299;42.004;24.868;2022-12-18T04:24:55;98986.13;;;10.28;100.00
6532;BME280;3299;42.004;24.868;2022-12-18T04:27:21;98975.00;;;10.26;100.00
6532;BME280;3299;42.004;24.868;2022-12-18T04:29:46;98933.25;;;10.04;100.00
6532;BME280;3299;42.004;24.868;2022-12-18T04:32:11;98981.53;;;10.33;100.00
6532;BME280;3299;42.004;24.868;2022-12-18T04:34:37;98938.31;;;10.05;100.00
6532;BME280;3299;42.004;24.868;2022-12-18T04:37:02;98954.31;;;10.12;100.00
6532;BME280;3299;42.004;24.868;2022-12-18T04:39:28;98992.31;;;10.25;100.00
6532;BME280;3299;42.004;24.868;2022-12-18T04:41:53;98970.75;;;10.11;100.00
6532;BME280;3299;42.004;24.868;2022-12-18T04:44:18;98916.88;;;9.74;100.00
6532;BME280;3299;42.004;24.868;2022-12-18T04:46:44;99016.16;;;10.30;100.00
6532;BME280;3299;42.004;24.868;2022-12-18T04:49:09;98957.56;;;10.00;100.00
6532;BME280;3299;42.004;24.868;2022-12-18T04:51:36;98945.16;;;9.91;100.00
6532;BME280;3299;42.004;24.868;2022-12-18T04:54:02;99013.81;;;10.26;100.00
6532;BME280;3299;42.004;24.868;2022-12-18T04:56:27;99020.34;;;10.17;100.00
6532;BME280;3299;42.004;24.868;2022-12-18T04:58:53;98976.19;;;9.91;100.00
6532;BME280;3299;42.004;24.868;2022-12-18T05:01:18;99005.88;;;10.15;100.00
6532;BME280;3299;42.004;24.868;2022-12-18T05:03:44;99025.63;;;10.16;100.00
6532;BME280;3299;42.004;24.868;2022-12-18T05:06:10;99042.22;;;10.12;100.00
6532;BME280;3299;42.004;24.868;2022-12-18T05:08:35;98990.56;;;9.81;100.00
6532;BME280;3299;42.004;24.868;2022-12-18T05:11:06;99024.94;;;9.97;100.00
6532;BME280;3299;42.004;24.868;2022-12-18T05:13:33;98983.72;;;9.80;100.00
6532;BME280;3299;42.004;24.868;2022-12-18T05:15:59;99049.06;;;10.13;100.00
6532;BME280;3299;42.004;24.868;2022-12-18T05:18:25;99053.50;;;10.11;100.00
6532;BME280;3299;42.004;24.868;2022-12-18T05:20:52;99017.88;;;9.85;100.00
6532;BME280;3299;42.004;24.868;2022-12-18T05:23:18;99064.91;;;10.07;100.00
6532;BME280;3299;42.004;24.868;2022-12-18T05:25:55;99072.53;;;10.10;100.00
6532;BME280;3299;42.004;24.868;2022-12-18T05:28:22;98979.00;;;9.57;100.00
6532;BME280;3299;42.004;24.868;2022-12-18T05:30:49;98974.94;;;9.53;100.00
6532;BME280;3299;42.004;24.868;2022-12-18T05:33:16;99061.72;;;10.02;100.00
6532;BME280;3299;42.004;24.868;2022-12-18T05:35:41;99057.81;;;9.95;100.00
6532;BME280;3299;42.004;24.868;2022-12-18T05:38:06;99043.91;;;9.82;100.00
6532;BME280;3299;42.004;24.868;2022-12-18T05:40:32;99038.09;;;9.78;100.00
6532;BME280;3299;42.004;24.868;2022-12-18T05:42:57;99075.91;;;9.95;100.00
6532;BME280;3299;42.004;24.868;2022-12-18T05:45:23;99065.91;;;9.89;100.00
6532;BME280;3299;42.004;24.868;2022-12-18T05:47:48;99099.97;;;10.13;100.00
6532;BME280;3299;42.004;24.868;2022-12-18T05:50:13;99105.94;;;10.13;100.00
6532;BME280;3299;42.004;24.868;2022-12-18T05:52:39;99053.97;;;9.86;100.00
6532;BME280;3299;42.004;24.868;2022-12-18T05:55:04;99096.44;;;10.13;100.00
6532;BME280;3299;42.004;24.868;2022-12-18T05:57:30;99111.03;;;10.14;100.00
6532;BME280;3299;42.004;24.868;2022-12-18T05:59:55;99027.56;;;9.66;100.00
6532;BME280;3299;42.004;24.868;2022-12-18T06:02:21;99086.91;;;9.98;100.00
6532;BME280;3299;42.004;24.868;2022-12-18T06:04:46;99110.53;;;10.08;100.00
6532;BME280;3299;42.004;24.868;2022-12-18T06:07:14;99096.59;;;9.95;100.00
6532;BME280;3299;42.004;24.868;2022-12-18T06:09:40;99089.22;;;10.03;100.00
6532;BME280;3299;42.004;24.868;2022-12-18T06:12:05;99084.88;;;10.05;100.00
6532;BME280;3299;42.004;24.868;2022-12-18T06:14:31;99133.78;;;10.39;100.00
6532;BME280;3299;42.004;24.868;2022-12-18T06:16:56;99134.25;;;10.45;100.00
6532;BME280;3299;42.004;24.868;2022-12-18T06:19:22;99124.44;;;10.36;100.00
6532;BME280;3299;42.004;24.868;2022-12-18T06:21:47;99151.09;;;10.52;100.00
6532;BME280;3299;42.004;24.868;2022-12-18T06:24:14;99146.09;;;10.49;100.00
6532;BME280;3299;42.004;24.868;2022-12-18T06:26:40;99111.34;;;10.24;100.00
6532;BME280;3299;42.004;24.868;2022-12-18T06:29:05;99122.09;;;10.32;100.00
6532;BME280;3299;42.004;24.868;2022-12-18T06:31:31;99111.28;;;10.25;100.00
6532;BME280;3299;42.004;24.868;2022-12-18T06:33:56;99105.59;;;10.19;100.00
6532;BME280;3299;42.004;24.868;2022-12-18T06:36:22;99168.13;;;10.56;100.00
6532;BME280;3299;42.004;24.868;2022-12-18T06:38:48;99105.69;;;10.17;100.00
6532;BME280;3299;42.004;24.868;2022-12-18T06:41:19;99130.63;;;10.34;100.00
6532;BME280;3299;42.004;24.868;2022-12-18T06:43:45;99170.63;;;10.58;100.00
6532;BME280;3299;42.004;24.868;2022-12-18T06:46:11;99112.78;;;10.29;100.00
6532;BME280;3299;42.004;24.868;2022-12-18T06:48:37;99123.59;;;10.36;100.00
6532;BME280;3299;42.004;24.868;2022-12-18T06:51:02;99182.72;;;10.73;100.00
6532;BME280;3299;42.004;24.868;2022-12-18T06:53:28;99126.03;;;10.39;100.00
6532;BME280;3299;42.004;24.868;2022-12-18T06:56:00;99187.72;;;10.76;100.00
6532;BME280;3299;42.004;24.868;2022-12-18T06:58:26;99131.09;;;10.40;100.00
6532;BME280;3299;42.004;24.868;2022-12-18T07:00:52;99189.44;;;10.75;100.00
6532;BME280;3299;42.004;24.868;2022-12-18T07:03:17;99162.88;;;10.58;100.00
6532;BME280;3299;42.004;24.868;2022-12-18T07:05:43;99202.88;;;10.82;100.00
6532;BME280;3299;42.004;24.868;2022-12-18T07:08:08;99150.28;;;10.52;100.00
6532;BME280;3299;42.004;24.868;2022-12-18T07:10:39;99212.16;;;10.86;100.00
6532;BME280;3299;42.004;24.868;2022-12-18T07:13:05;99210.16;;;10.91;100.00
6532;BME280;3299;42.004;24.868;2022-12-18T07:15:30;99203.13;;;10.93;100.00
6532;BME280;3299;42.004;24.868;2022-12-18T07:17:56;99171.44;;;10.74;100.00
6532;BME280;3299;42.004;24.868;2022-12-18T07:20:21;99220.81;;;11.00;100.00
6532;BME280;3299;42.004;24.868;2022-12-18T07:22:47;99134.69;;;10.53;100.00
6532;BME280;3299;42.004;24.868;2022-12-18T07:25:12;99224.78;;;11.06;100.00
6532;BME280;3299;42.004;24.868;2022-12-18T07:27:37;99215.34;;;11.05;100.00
6532;BME280;3299;42.004;24.868;2022-12-18T07:30:03;99208.66;;;11.01;100.00
6532;BME280;3299;42.004;24.868;2022-12-18T07:32:30;99210.34;;;11.02;100.00
6532;BME280;3299;42.004;24.868;2022-12-18T07:34:55;99231.38;;;11.11;100.00
6532;BME280;3299;42.004;24.868;2022-12-18T07:37:22;99148.66;;;10.65;100.00
6532;BME280;3299;42.004;24.868;2022-12-18T07:39:47;99236.09;;;11.19;100.00
6532;BME280;3299;42.004;24.868;2022-12-18T07:42:13;99186.72;;;10.92;100.00
6532;BME280;3299;42.004;24.868;2022-12-18T07:44:57;99179.09;;;10.75;100.00
6532;BME280;3299;42.004;24.868;2022-12-18T07:47:22;99245.72;;;11.17;100.00
6532;BME280;3299;42.004;24.868;2022-12-18T07:49:48;99242.22;;;11.18;100.00
6532;BME280;3299;42.004;24.868;2022-12-18T07:52:13;99203.97;;;10.93;100.00
6532;BME280;3299;42.004;24.868;2022-12-18T07:54:39;99242.56;;;11.12;100.00
6532;BME280;3299;42.004;24.868;2022-12-18T07:57:05;99209.22;;;10.92;100.00
6532;BME280;3299;42.004;24.868;2022-12-18T07:59:31;99233.47;;;11.05;100.00
6532;BME280;3299;42.004;24.868;2022-12-18T08:01:56;99226.34;;;10.94;100.00
6532;BME280;3299;42.004;24.868;2022-12-18T08:04:22;99182.81;;;10.71;100.00
6532;BME280;3299;42.004;24.868;2022-12-18T08:06:47;99264.94;;;11.13;100.00
6532;BME280;3299;42.004;24.868;2022-12-18T08:09:13;99234.09;;;10.94;100.00
6532;BME280;3299;42.004;24.868;2022-12-18T08:11:38;99277.38;;;11.22;100.00
6532;BME280;3299;42.004;24.868;2022-12-18T08:14:03;99264.72;;;11.17;100.00
6532;BME280;3299;42.004;24.868;2022-12-18T08:16:29;99272.22;;;11.22;100.00
6532;BME280;3299;42.004;24.868;2022-12-18T08:18:55;99197.13;;;10.77;100.00
6532;BME280;3299;42.004;24.868;2022-12-18T08:21:24;99280.63;;;11.25;100.00
6532;BME280;3299;42.004;24.868;2022-12-18T08:23:51;99251.44;;;11.08;100.00
6532;BME280;3299;42.004;24.868;2022-12-18T08:26:17;99288.06;;;11.31;100.00
6532;BME280;3299;42.004;24.868;2022-12-18T08:28:43;99288.31;;;11.27;100.00
6532;BME280;3299;42.004;24.868;2022-12-18T08:31:09;99253.00;;;11.10;100.00
6532;BME280;3299;42.004;24.868;2022-12-18T08:33:36;99248.09;;;11.06;100.00
6532;BME280;3299;42.004;24.868;2022-12-18T08:36:03;99294.06;;;11.32;100.00
6532;BME280;3299;42.004;24.868;2022-12-18T08:38:32;99242.88;;;10.92;100.00
6532;BME280;3299;42.004;24.868;2022-12-18T08:41:05;99185.22;;;10.59;100.00
6532;BME280;3299;42.004;24.868;2022-12-18T08:43:31;99293.50;;;11.27;100.00
6532;BME280;3299;42.004;24.868;2022-12-18T08:46:15;99283.88;;;11.29;100.00
6532;BME280;3299;42.004;24.868;2022-12-18T08:48:40;99281.00;;;11.33;100.00
6532;BME280;3299;42.004;24.868;2022-12-18T08:51:06;99250.16;;;11.15;100.00
6532;BME280;3299;42.004;24.868;2022-12-18T08:53:31;99245.91;;;11.14;100.00
6532;BME280;3299;42.004;24.868;2022-12-18T08:55:57;99204.56;;;10.83;100.00
6532;BME280;3299;42.004;24.868;2022-12-18T08:58:23;99227.00;;;10.98;100.00
6532;BME280;3299;42.004;24.868;2022-12-18T09:00:48;99287.69;;;11.37;100.00
6532;BME280;3299;42.004;24.868;2022-12-18T09:03:15;99199.88;;;10.89;100.00
6532;BME280;3299;42.004;24.868;2022-12-18T09:05:41;99287.19;;;11.46;100.00
6532;BME280;3299;42.004;24.868;2022-12-18T09:08:07;99236.09;;;11.19;100.00
6532;BME280;3299;42.004;24.868;2022-12-18T09:10:32;99275.97;;;11.46;100.00
6532;BME280;3299;42.004;24.868;2022-12-18T09:12:58;99265.78;;;11.43;100.00
6532;BME280;3299;42.004;24.868;2022-12-18T09:15:23;99222.72;;;11.26;100.00
6532;BME280;3299;42.004;24.868;2022-12-18T09:17:49;99269.50;;;11.53;100.00
6532;BME280;3299;42.004;24.868;2022-12-18T09:20:15;99272.00;;;11.54;100.00
6532;BME280;3299;42.004;24.868;2022-12-18T09:22:41;99270.81;;;11.60;100.00
6532;BME280;3299;42.004;24.868;2022-12-18T09:25:06;99285.00;;;11.68;100.00
6532;BME280;3299;42.004;24.868;2022-12-18T09:27:35;99286.78;;;11.68;100.00
6532;BME280;3299;42.004;24.868;2022-12-18T09:30:00;99231.91;;;11.32;100.00
6532;BME280;3299;42.004;24.868;2022-12-18T09:32:26;99289.09;;;11.58;100.00
6532;BME280;3299;42.004;24.868;2022-12-18T09:34:51;99285.84;;;11.39;100.00
6532;BME280;3299;42.004;24.868;2022-12-18T09:37:17;99208.66;;;11.01;100.00
6532;BME280;3299;42.004;24.868;2022-12-18T09:39:42;99273.34;;;11.32;100.00
6532;BME280;3299;42.004;24.868;2022-12-18T09:42:22;99241.63;;;11.13;100.00
6532;BME280;3299;42.004;24.868;2022-12-18T09:44:53;99250.06;;;11.16;100.00
6532;BME280;3299;42.004;24.868;2022-12-18T09:47:28;99285.03;;;11.39;100.00
6532;BME280;3299;42.004;24.868;2022-12-18T09:49:58;99236.81;;;11.07;100.00
6532;BME280;3299;42.004;24.868;2022-12-18T09:57:29;99291.25;;;11.21;100.00
6532;BME280;3299;42.004;24.868;2022-12-18T09:59:59;99274.91;;;11.05;100.00
6532;BME280;3299;42.004;24.868;2022-12-18T10:02:30;99300.31;;;11.14;100.00
6532;BME280;3299;42.004;24.868;2022-12-18T10:05:21;99296.22;;;11.10;100.00
6532;BME280;3299;42.004;24.868;2022-12-18T10:10:46;99236.50;;;10.97;100.00
6532;BME280;3299;42.004;24.868;2022-12-18T10:13:19;99288.41;;;11.25;100.00
6532;BME280;3299;42.004;24.868;2022-12-18T10:18:36;99282.56;;;11.22;100.00
6532;BME280;3299;42.004;24.868;2022-12-18T10:21:15;99275.88;;;11.18;100.00
6532;BME280;3299;42.004;24.868;2022-12-18T10:23:57;99238.16;;;10.98;100.00
6532;BME280;3299;42.004;24.868;2022-12-18T10:26:27;99288.91;;;11.32;100.00
6532;BME280;3299;42.004;24.868;2022-12-18T10:28:53;99291.94;;;11.38;100.00
6532;BME280;3299;42.004;24.868;2022-12-18T10:31:23;99256.22;;;11.29;100.00
6532;BME280;3299;42.004;24.868;2022-12-18T10:33:49;99280.97;;;11.49;100.00
6532;BME280;3299;42.004;24.868;2022-12-18T10:36:15;99286.16;;;11.49;100.00
6532;BME280;3299;42.004;24.868;2022-12-18T10:38:41;99298.00;;;11.53;100.00
6532;BME280;3299;42.004;24.868;2022-12-18T10:41:23;99259.53;;;11.17;100.00
6532;BME280;3299;42.004;24.868;2022-12-18T10:46:41;99269.63;;;11.22;100.00
6532;BME280;3299;42.004;24.868;2022-12-18T10:49:40;99267.88;;;11.22;100.00
6532;BME280;3299;42.004;24.868;2022-12-18T10:52:14;99320.56;;;11.37;100.00
6532;BME280;3299;42.004;24.868;2022-12-18T10:54:46;99321.81;;;11.30;100.00
6532;BME280;3299;42.004;24.868;2022-12-18T10:57:34;99339.88;;;11.31;100.00
6532;BME280;3299;42.004;24.868;2022-12-18T11:00:27;99290.63;;;11.02;100.00
6532;BME280;3299;42.004;24.868;2022-12-18T11:02:54;99284.88;;;10.97;100.00
6532;BME280;3299;42.004;24.868;2022-12-18T11:05:25;99336.69;;;11.26;100.00
6532;BME280;3299;42.004;24.868;2022-12-18T11:07:51;99327.44;;;11.22;100.00
6532;BME280;3299;42.004;24.868;2022-12-18T11:10:20;99335.66;;;11.15;100.00
6532;BME280;3299;42.004;24.868;2022-12-18T11:12:46;99328.56;;;11.03;100.00
6532;BME280;3299;42.004;24.868;2022-12-18T11:15:23;99292.59;;;10.67;100.00
6532;BME280;3299;42.004;24.868;2022-12-18T11:17:50;99257.19;;;10.37;100.00
6532;BME280;3299;42.004;24.868;2022-12-18T11:23:02;99327.41;;;10.77;100.00
6532;BME280;3299;42.004;24.868;2022-12-18T11:25:28;99301.94;;;10.70;100.00
6532;BME280;3299;42.004;24.868;2022-12-18T11:28:00;99352.75;;;11.02;100.00
6532;BME280;3299;42.004;24.868;2022-12-18T11:30:30;99341.34;;;10.75;100.00
6532;BME280;3299;42.004;24.868;2022-12-18T11:33:10;99336.75;;;10.80;100.00
6532;BME280;3299;42.004;24.868;2022-12-18T11:35:52;99310.63;;;10.69;100.00
6532;BME280;3299;42.004;24.868;2022-12-18T11:38:27;99315.53;;;10.73;100.00
6532;BME280;3299;42.004;24.868;2022-12-18T11:41:04;99303.19;;;10.63;100.00
6532;BME280;3299;42.004;24.868;2022-12-18T11:43:41;99344.00;;;10.89;100.00
6532;BME280;3299;42.004;24.868;2022-12-18T11:46:30;99367.75;;;10.97;100.00
6532;BME280;3299;42.004;24.868;2022-12-18T11:49:11;99354.28;;;10.90;100.00
6532;BME280;3299;42.004;24.868;2022-12-18T11:51:51;99360.13;;;10.94;100.00
6532;BME280;3299;42.004;24.868;2022-12-18T11:54:18;99330.66;;;10.81;100.00
6532;BME280;3299;42.004;24.868;2022-12-18T11:56:55;99375.50;;;11.12;100.00
6532;BME280;3299;42.004;24.868;2022-12-18T12:02:17;99383.34;;;11.11;100.00
6532;BME280;3299;42.004;24.868;2022-12-18T12:05:46;99387.03;;;11.22;100.00
6532;BME280;3299;42.004;24.868;2022-12-18T12:11:06;99381.50;;;11.28;100.00
6532;BME280;3299;42.004;24.868;2022-12-18T12:14:02;99379.41;;;11.35;100.00
6532;BME280;3299;42.004;24.868;2022-12-18T12:16:31;99382.16;;;11.32;100.00
6532;BME280;3299;42.004;24.868;2022-12-18T12:38:41;99393.38;;;10.86;100.00
6532;BME280;3299;42.004;24.868;2022-12-18T12:41:13;99385.34;;;10.59;100.00
6532;BME280;3299;42.004;24.868;2022-12-18T12:44:24;99402.63;;;10.59;100.00
6532;BME280;3299;42.004;24.868;2022-12-18T12:46:52;99349.63;;;10.01;100.00
6532;BME280;3299;42.004;24.868;2022-12-18T12:49:22;99384.47;;;10.11;100.00
6532;BME280;3299;42.004;24.868;2022-12-18T12:51:59;99407.13;;;10.23;100.00
6532;BME280;3299;42.004;24.868;2022-12-18T12:54:26;99407.66;;;10.29;100.00
6532;BME280;3299;42.004;24.868;2022-12-18T12:57:06;99424.03;;;10.45;100.00
6532;BME280;3299;42.004;24.868;2022-12-18T13:04:53;99352.88;;;10.21;100.00
6532;BME280;3299;42.004;24.868;2022-12-18T13:13:04;99453.75;;;10.86;100.00
6532;BME280;3299;42.004;24.868;2022-12-18T13:20:39;99453.34;;;10.94;100.00
6532;BME280;3299;42.004;24.868;2022-12-18T13:34:18;99475.13;;;10.90;100.00
6532;BME280;3299;42.004;24.868;2022-12-18T13:36:45;99471.56;;;10.92;100.00
6532;BME280;3299;42.004;24.868;2022-12-18T13:41:42;99439.09;;;10.54;100.00
6532;BME280;3299;42.004;24.868;2022-12-18T13:44:37;99486.88;;;10.64;100.00
6532;BME280;3299;42.004;24.868;2022-12-18T13:49:53;99387.78;;;9.62;100.00
6532;BME280;3299;42.004;24.868;2022-12-18T13:52:28;99406.66;;;9.64;100.00
6532;BME280;3299;42.004;24.868;2022-12-18T13:54:59;99464.94;;;10.05;100.00
6532;BME280;3299;42.004;24.868;2022-12-18T13:59:54;99515.59;;;10.26;100.00
6532;BME280;3299;42.004;24.868;2022-12-18T14:02:23;99510.72;;;10.20;100.00
6532;BME280;3299;42.004;24.868;2022-12-18T14:04:50;99511.13;;;10.29;100.00
6532;BME280;3299;42.004;24.868;2022-12-18T14:07:23;99489.94;;;10.04;100.00
6532;BME280;3299;42.004;24.868;2022-12-18T14:09:51;99520.63;;;10.12;100.00
6532;BME280;3299;42.004;24.868;2022-12-18T14:12:25;99438.88;;;9.57;100.00
6532;BME280;3299;42.004;24.868;2022-12-18T14:17:57;99460.47;;;9.73;100.00
6532;BME280;3299;42.004;24.868;2022-12-18T14:20:25;99489.06;;;9.70;100.00
6532;BME280;3299;42.004;24.868;2022-12-18T14:22:51;99503.88;;;9.67;100.00
6532;BME280;3299;42.004;24.868;2022-12-18T14:25:21;99552.16;;;9.83;100.00
6532;BME280;3299;42.004;24.868;2022-12-18T14:27:50;99552.34;;;9.80;100.00
6532;BME280;3299;42.004;24.868;2022-12-18T14:35:53;99565.75;;;9.69;100.00
6532;BME280;3299;42.004;24.868;2022-12-18T14:40:47;99570.44;;;9.43;100.00
6532;BME280;3299;42.004;24.868;2022-12-18T14:43:20;99565.47;;;9.39;100.00
6532;BME280;3299;42.004;24.868;2022-12-18T14:45:46;99560.03;;;9.26;100.00
6532;BME280;3299;42.004;24.868;2022-12-18T14:48:41;99567.50;;;9.51;100.00
6532;BME280;3299;42.004;24.868;2022-12-18T14:53:39;99566.41;;;9.38;100.00
6532;BME280;3299;42.004;24.868;2022-12-18T14:56:21;99531.91;;;9.20;100.00
6532;BME280;3299;42.004;24.868;2022-12-18T14:58:49;99572.94;;;9.45;100.00
6532;BME280;3299;42.004;24.868;2022-12-18T15:01:38;99573.88;;;9.44;100.00
6532;BME280;3299;42.004;24.868;2022-12-18T15:04:18;99583.06;;;9.49;100.00
6532;BME280;3299;42.004;24.868;2022-12-18T15:06:48;99540.28;;;9.25;100.00